createdAt,value
2023-03-04T00:01:22.925Z,48.53
2023-03-04T00:03:24.332Z,48.73
2023-03-04T00:05:25.814Z,49.44
2023-03-04T00:07:27.224Z,49.13
2023-03-04T00:09:31.644Z,49.54
2023-03-04T00:11:32.995Z,49.69
2023-03-04T00:13:34.405Z,49.56
2023-03-04T00:15:35.736Z,50.11
2023-03-04T00:17:37.091Z,50.29
2023-03-04T00:19:38.502Z,50.62
2023-03-04T00:21:39.836Z,50.59
2023-03-04T00:23:41.970Z,50.68
2023-03-04T00:25:43.696Z,50.80
2023-03-04T00:27:45.100Z,50.91
2023-03-04T00:29:46.404Z,51.13
2023-03-04T00:31:47.948Z,51.70
2023-03-04T00:33:49.388Z,51.22
2023-03-04T00:35:50.803Z,51.31
2023-03-04T00:37:52.282Z,50.89
2023-03-04T00:39:53.587Z,51.46
2023-03-04T00:41:54.945Z,50.95
2023-03-04T00:43:56.362Z,50.82
2023-03-04T00:45:57.695Z,51.37
2023-03-04T00:47:59.055Z,50.75
2023-03-04T00:50:00.361Z,51.01
2023-03-04T00:52:02.247Z,51.00
2023-03-04T00:54:03.563Z,51.04
2023-03-04T00:56:04.943Z,50.61
2023-03-04T00:58:06.299Z,50.53
2023-03-04T01:00:07.629Z,50.35
2023-03-04T01:02:09.003Z,50.23
2023-03-04T01:04:10.327Z,50.47
2023-03-04T01:06:12.511Z,50.18
2023-03-04T01:08:13.844Z,50.27
2023-03-04T01:10:15.178Z,50.26
2023-03-04T01:12:16.511Z,50.41
2023-03-04T01:14:17.921Z,50.66
2023-03-04T01:16:19.318Z,50.37
2023-03-04T01:18:20.667Z,50.16
2023-03-04T01:20:22.020Z,50.44
2023-03-04T01:22:23.314Z,50.51
2023-03-04T01:24:24.658Z,50.77
2023-03-04T01:26:26.019Z,50.84
2023-03-04T01:28:27.365Z,50.91
2023-03-04T01:30:28.795Z,50.66
2023-03-04T01:32:30.221Z,50.81
2023-03-04T01:34:31.576Z,51.56
2023-03-04T01:36:32.925Z,51.64
2023-03-04T01:38:34.230Z,51.60
2023-03-04T01:40:35.580Z,51.59
2023-03-04T01:42:36.920Z,51.46
2023-03-04T01:44:38.227Z,51.38
2023-03-04T01:46:39.559Z,52.02
2023-03-04T01:48:41.023Z,51.75
2023-03-04T01:50:42.343Z,51.57
2023-03-04T01:52:43.656Z,52.00
2023-03-04T01:54:45.014Z,51.96
2023-03-04T01:56:46.377Z,51.91
2023-03-04T01:58:47.672Z,51.83
2023-03-04T02:00:49.799Z,51.60
2023-03-04T02:02:51.127Z,51.90
2023-03-04T02:04:52.424Z,52.04
2023-03-04T02:06:53.827Z,52.13
2023-03-04T02:08:55.182Z,51.95
2023-03-04T02:10:56.486Z,52.23
2023-03-04T02:12:58.063Z,51.97
2023-03-04T02:14:59.404Z,52.27
2023-03-04T02:17:00.823Z,52.15
2023-03-04T02:19:02.161Z,51.78
2023-03-04T02:21:03.489Z,51.82
2023-03-04T02:23:04.791Z,51.84
2023-03-04T02:25:06.080Z,51.74
2023-03-04T02:27:07.407Z,52.00
2023-03-04T02:29:08.700Z,51.88
2023-03-04T02:31:10.046Z,51.84
2023-03-04T02:33:11.353Z,51.92
2023-03-04T02:35:12.696Z,52.12
2023-03-04T02:37:14.001Z,52.08
2023-03-04T02:39:15.319Z,52.32
2023-03-04T02:41:16.827Z,51.83
2023-03-04T02:43:18.143Z,51.77
2023-03-04T02:45:19.589Z,51.81
2023-03-04T02:47:20.900Z,51.82
2023-03-04T02:49:22.228Z,51.76
2023-03-04T02:51:23.597Z,51.90
2023-03-04T02:53:28.773Z,51.87
2023-03-04T02:55:30.097Z,52.12
2023-03-04T02:57:31.434Z,52.35
2023-03-04T02:59:32.736Z,52.46
2023-03-04T03:01:34.222Z,52.24
2023-03-04T03:03:35.648Z,52.56
2023-03-04T03:05:37.124Z,52.85
2023-03-04T03:07:38.459Z,52.33
2023-03-04T03:09:39.788Z,52.40
2023-03-04T03:11:41.104Z,52.64
2023-03-04T03:13:42.411Z,52.65
2023-03-04T03:15:43.808Z,52.46
2023-03-04T03:17:45.149Z,53.01
2023-03-04T03:19:46.628Z,52.50
2023-03-04T03:21:47.990Z,52.46
2023-03-04T03:23:49.324Z,52.77
2023-03-04T03:25:50.664Z,52.42
2023-03-04T03:27:52.010Z,52.17
2023-03-04T03:29:53.342Z,51.91
2023-03-04T03:31:54.684Z,52.10
2023-03-04T03:33:56.147Z,52.15
2023-03-04T03:35:57.581Z,52.26
2023-03-04T03:37:58.932Z,52.25
2023-03-04T03:40:00.254Z,52.09
2023-03-04T03:42:01.559Z,52.13
2023-03-04T03:44:02.937Z,52.22
2023-03-04T03:46:04.285Z,52.39
2023-03-04T03:48:05.756Z,52.27
2023-03-04T03:50:07.103Z,52.24
2023-03-04T03:52:09.133Z,52.25
2023-03-04T03:54:10.520Z,52.34
2023-03-04T03:56:11.816Z,51.57
2023-03-04T03:58:13.247Z,52.14
2023-03-04T04:00:14.556Z,52.29
2023-03-04T04:02:15.921Z,52.30
2023-03-04T04:04:17.306Z,52.10
2023-03-04T04:06:18.663Z,52.16
2023-03-04T04:08:19.964Z,52.20
2023-03-04T04:10:21.709Z,52.47
2023-03-04T04:12:23.080Z,52.24
2023-03-04T04:14:24.416Z,52.67
2023-03-04T04:16:25.801Z,52.44
2023-03-04T04:18:27.126Z,52.77
2023-03-04T04:20:28.443Z,52.40
2023-03-04T04:22:29.785Z,52.49
2023-03-04T04:24:31.100Z,52.52
2023-03-04T04:26:32.490Z,52.50
2023-03-04T04:28:33.800Z,52.49
2023-03-04T04:30:35.163Z,52.89
2023-03-04T04:32:36.619Z,52.66
2023-03-04T04:34:37.954Z,53.04
2023-03-04T04:36:39.356Z,52.73
2023-03-04T04:38:40.715Z,52.71
2023-03-04T04:40:43.050Z,52.52
2023-03-04T04:42:44.352Z,52.71
2023-03-04T04:44:45.668Z,52.76
2023-03-04T04:46:47.010Z,52.36
2023-03-04T04:48:48.322Z,52.41
2023-03-04T04:50:49.666Z,52.38
2023-03-04T04:52:50.960Z,51.93
2023-03-04T04:54:52.296Z,52.09
2023-03-04T04:56:53.630Z,51.93
2023-03-04T04:58:54.993Z,52.32
2023-03-04T05:00:56.443Z,51.65
2023-03-04T05:02:57.803Z,51.59
2023-03-04T05:04:59.522Z,52.03
2023-03-04T05:07:00.868Z,51.74
2023-03-04T05:09:02.308Z,51.77
2023-03-04T05:11:03.677Z,52.00
2023-03-04T05:13:05.023Z,52.21
2023-03-04T05:15:06.381Z,51.97
2023-03-04T05:17:07.764Z,52.06
2023-03-04T05:19:09.633Z,52.19
2023-03-04T05:21:11.077Z,52.33
2023-03-04T05:23:12.409Z,52.26
2023-03-04T05:25:13.753Z,52.56
2023-03-04T05:27:15.083Z,52.79
2023-03-04T05:29:16.420Z,52.72
2023-03-04T05:31:18.075Z,53.01
2023-03-04T05:33:19.472Z,52.88
2023-03-04T05:35:20.826Z,52.74
2023-03-04T05:37:22.140Z,53.44
2023-03-04T05:39:23.446Z,53.06
2023-03-04T05:41:25.909Z,53.39
2023-03-04T05:43:27.856Z,53.39
2023-03-04T05:45:29.207Z,53.37
2023-03-04T05:47:30.540Z,53.70
2023-03-04T05:49:31.952Z,53.99
2023-03-04T05:51:33.280Z,53.80
2023-03-04T05:53:36.939Z,53.59
2023-03-04T05:55:38.327Z,53.86
2023-03-04T05:57:39.719Z,53.39
2023-03-04T05:59:41.028Z,53.99
2023-03-04T06:01:42.408Z,54.23
2023-03-04T06:03:43.891Z,54.10
2023-03-04T06:05:45.279Z,54.12
2023-03-04T06:07:46.716Z,53.40
2023-03-04T06:09:48.061Z,53.02
2023-03-04T06:11:49.407Z,52.60
2023-03-04T06:13:50.811Z,52.48
2023-03-04T06:15:52.177Z,52.00
2023-03-04T06:17:53.481Z,51.76
2023-03-04T06:19:54.838Z,51.83
2023-03-04T06:21:56.188Z,52.13
2023-03-04T06:23:57.488Z,51.70
2023-03-04T06:25:58.822Z,51.82
2023-03-04T06:28:00.150Z,52.39
2023-03-04T06:30:02.049Z,52.06
2023-03-04T06:32:03.424Z,52.59
2023-03-04T06:34:04.820Z,52.25
2023-03-04T06:36:06.119Z,51.86
2023-03-04T06:38:07.450Z,52.07
2023-03-04T06:40:08.796Z,52.34
2023-03-04T06:42:10.197Z,52.59
2023-03-04T06:44:11.543Z,52.84
2023-03-04T06:46:12.930Z,52.77
2023-03-04T06:48:14.304Z,53.06
2023-03-04T06:50:15.733Z,53.03
2023-03-04T06:52:17.076Z,52.94
2023-03-04T06:54:18.418Z,52.98
2023-03-04T06:56:19.758Z,52.98
2023-03-04T06:58:21.052Z,53.09
2023-03-04T07:00:24.024Z,53.40
2023-03-04T07:02:25.393Z,53.54
2023-03-04T07:04:26.756Z,53.41
2023-03-04T07:06:28.096Z,53.27
2023-03-04T07:08:29.437Z,53.92
2023-03-04T07:10:30.752Z,53.63
2023-03-04T07:12:32.094Z,53.43
2023-03-04T07:14:39.410Z,54.01
2023-03-04T07:16:40.825Z,53.33
2023-03-04T07:18:42.168Z,53.56
2023-03-04T07:20:43.532Z,53.84
2023-03-04T07:22:44.820Z,53.89
2023-03-04T07:24:46.483Z,53.45
2023-03-04T07:26:47.805Z,53.80
2023-03-04T07:28:49.159Z,54.04
2023-03-04T07:30:50.496Z,53.47
2023-03-04T07:32:51.910Z,53.79
2023-03-04T07:34:53.341Z,53.57
2023-03-04T07:36:54.798Z,53.45
2023-03-04T07:38:56.654Z,53.59
2023-03-04T07:40:58.070Z,53.41
2023-03-04T07:42:59.388Z,53.32
2023-03-04T07:45:02.223Z,46.14
2023-03-04T07:47:03.518Z,45.67
2023-03-04T07:49:05.687Z,43.59
2023-03-04T07:51:07.040Z,42.21
2023-03-04T07:53:08.419Z,42.98
2023-03-04T07:55:09.822Z,41.93
2023-03-04T07:57:11.191Z,44.43
2023-03-04T07:59:12.588Z,43.35
2023-03-04T08:01:13.909Z,42.66
2023-03-04T08:03:15.219Z,42.85
2023-03-04T08:05:16.596Z,43.21
2023-03-04T08:07:17.995Z,43.55
2023-03-04T08:09:19.409Z,43.64
2023-03-04T08:11:20.736Z,43.88
2023-03-04T08:13:23.361Z,44.16
2023-03-04T08:15:27.328Z,44.05
2023-03-04T08:17:29.840Z,44.45
2023-03-04T08:19:31.216Z,44.46
2023-03-04T08:21:32.560Z,44.50
2023-03-04T08:23:33.900Z,44.95
2023-03-04T08:25:35.240Z,44.76
2023-03-04T08:27:37.415Z,45.17
2023-03-04T08:29:38.836Z,45.33
2023-03-04T08:31:40.372Z,45.06
2023-03-04T08:33:41.797Z,45.06
2023-03-04T08:35:43.181Z,45.13
2023-03-04T08:37:46.054Z,45.16
2023-03-04T08:39:47.396Z,45.65
2023-03-04T08:41:48.774Z,45.84
2023-03-04T08:43:50.106Z,45.32
2023-03-04T08:45:51.450Z,45.37
2023-03-04T08:47:52.789Z,45.51
2023-03-04T08:50:00.194Z,45.89
2023-03-04T08:52:01.506Z,45.75
2023-03-04T08:54:02.922Z,45.97
2023-03-04T08:56:04.259Z,46.26
2023-03-04T08:58:11.320Z,46.53
2023-03-04T09:00:12.653Z,46.58
2023-03-04T09:02:13.995Z,46.81
2023-03-04T09:04:15.324Z,46.60
2023-03-04T09:06:16.794Z,46.82
2023-03-04T09:08:18.118Z,47.00
2023-03-04T09:10:19.451Z,47.06
2023-03-04T09:12:20.778Z,47.07
2023-03-04T09:14:22.121Z,47.33
2023-03-04T09:16:23.529Z,47.28
2023-03-04T09:18:24.878Z,47.37
2023-03-04T09:20:29.278Z,47.88
2023-03-04T09:22:36.588Z,49.47
2023-03-04T09:24:37.976Z,47.86
2023-03-04T09:26:39.312Z,47.50
2023-03-04T09:28:43.514Z,47.52
2023-03-04T09:30:44.919Z,49.02
2023-03-04T09:32:46.260Z,46.99
2023-03-04T09:34:47.621Z,47.89
2023-03-04T09:36:48.977Z,48.01
2023-03-04T09:38:50.336Z,47.18
2023-03-04T09:40:51.811Z,48.42
2023-03-04T09:42:53.153Z,47.95
2023-03-04T09:44:54.466Z,48.02
2023-03-04T09:46:55.862Z,48.40
2023-03-04T09:48:57.219Z,48.57
2023-03-04T09:50:59.510Z,48.61
2023-03-04T09:53:02.012Z,48.69
2023-03-04T09:55:04.917Z,48.98
2023-03-04T09:57:06.450Z,49.79
2023-03-04T09:59:07.749Z,49.34
2023-03-04T10:01:09.071Z,49.09
2023-03-04T10:03:10.577Z,48.78
2023-03-04T10:05:11.952Z,48.84
2023-03-04T10:07:13.340Z,48.98
2023-03-04T10:09:14.705Z,49.07
2023-03-04T10:11:16.073Z,49.25
2023-03-04T10:13:17.406Z,48.76
2023-03-04T10:15:18.828Z,49.08
2023-03-04T10:17:20.130Z,48.81
2023-03-04T10:19:21.430Z,48.53
2023-03-04T10:21:22.775Z,48.53
2023-03-04T10:23:24.256Z,48.48
2023-03-04T10:25:26.786Z,48.42
2023-03-04T10:27:30.151Z,47.79
2023-03-04T10:29:31.510Z,47.95
2023-03-04T10:31:35.298Z,47.34
2023-03-04T10:33:36.618Z,47.48
2023-03-04T10:35:38.036Z,47.44
2023-03-04T10:37:39.396Z,47.54
2023-03-04T10:39:40.739Z,47.64
2023-03-04T10:41:42.177Z,47.71
2023-03-04T10:43:46.823Z,47.81
2023-03-04T10:45:48.963Z,48.05
2023-03-04T10:47:53.431Z,48.18
2023-03-04T10:49:54.772Z,48.23
2023-03-04T10:51:57.668Z,47.23
2023-03-04T10:53:59.080Z,46.68
2023-03-04T10:56:01.074Z,47.50
2023-03-04T10:58:02.377Z,47.23
2023-03-04T11:00:06.507Z,47.29
2023-03-04T11:02:07.852Z,47.78
2023-03-04T11:04:09.186Z,48.54
2023-03-04T11:06:10.557Z,48.75
2023-03-04T11:08:11.887Z,49.08
2023-03-04T11:10:13.245Z,49.23
2023-03-04T11:12:14.613Z,49.31
2023-03-04T11:14:15.931Z,49.75
2023-03-04T11:16:17.273Z,49.20
2023-03-04T11:18:18.759Z,48.83
2023-03-04T11:20:20.140Z,48.94
2023-03-04T11:22:21.504Z,49.08
2023-03-04T11:24:29.095Z,48.77
2023-03-04T11:26:30.974Z,48.03
2023-03-04T11:28:32.265Z,48.02
2023-03-04T11:30:34.592Z,47.02
2023-03-04T11:32:37.310Z,47.89
2023-03-04T11:34:38.677Z,47.67
2023-03-04T11:36:40.027Z,46.83
2023-03-04T11:38:41.394Z,47.43
2023-03-04T11:40:45.843Z,46.65
2023-03-04T11:42:48.174Z,47.44
2023-03-04T11:44:49.500Z,47.17
2023-03-04T11:46:50.919Z,48.08
2023-03-04T11:48:52.231Z,48.12
2023-03-04T11:50:53.544Z,48.26
2023-03-04T11:52:54.901Z,47.62
2023-03-04T11:54:57.362Z,48.23
2023-03-04T11:56:58.861Z,48.25
2023-03-04T11:59:00.225Z,47.98
2023-03-04T12:01:01.534Z,47.32
2023-03-04T12:03:02.946Z,47.34
2023-03-04T12:05:04.400Z,47.58
2023-03-04T12:07:05.712Z,47.62
2023-03-04T12:09:07.152Z,47.23
2023-03-04T12:11:08.592Z,47.10
2023-03-04T12:13:09.928Z,46.88
2023-03-04T12:15:11.262Z,46.81
2023-03-04T12:17:12.567Z,46.66
2023-03-04T12:19:13.908Z,46.70
2023-03-04T12:21:15.915Z,46.58
2023-03-04T12:23:18.147Z,46.52
2023-03-04T12:25:19.740Z,46.55
2023-03-04T12:27:21.121Z,46.54
2023-03-04T12:29:22.430Z,46.76
2023-03-04T12:31:23.888Z,46.62
2023-03-04T12:33:25.355Z,46.42
2023-03-04T12:35:26.818Z,46.49
2023-03-04T12:37:28.295Z,46.94
2023-03-04T12:39:29.660Z,46.82
2023-03-04T12:41:30.997Z,46.73
2023-03-04T12:43:34.388Z,46.69
2023-03-04T12:45:37.084Z,47.10
2023-03-04T12:47:38.397Z,47.10
2023-03-04T12:49:39.757Z,46.72
2023-03-04T12:51:41.080Z,47.14
2023-03-04T12:53:42.418Z,47.13
2023-03-04T12:55:43.787Z,47.46
2023-03-04T12:57:45.140Z,46.98
2023-03-04T12:59:46.484Z,47.28
2023-03-04T13:01:47.787Z,47.46
2023-03-04T13:03:49.193Z,47.44
2023-03-04T13:05:50.537Z,47.73
2023-03-04T13:07:51.885Z,47.74
2023-03-04T13:09:53.182Z,47.85
2023-03-04T13:11:54.819Z,47.88
2023-03-04T13:13:56.244Z,47.98
2023-03-04T13:15:58.185Z,47.95
2023-03-04T13:17:59.646Z,49.01
2023-03-04T13:20:01.509Z,47.81
2023-03-04T13:22:03.052Z,47.26
2023-03-04T13:24:04.373Z,47.60
2023-03-04T13:26:05.679Z,48.38
2023-03-04T13:28:07.373Z,48.61
2023-03-04T13:30:08.668Z,49.60
2023-03-04T13:32:09.999Z,47.61
2023-03-04T13:34:11.359Z,48.01
2023-03-04T13:36:12.696Z,48.11
2023-03-04T13:38:14.388Z,47.76
2023-03-04T13:40:15.860Z,48.40
2023-03-04T13:42:17.251Z,49.34
2023-03-04T13:44:18.545Z,49.99
2023-03-04T13:46:20.020Z,48.57
2023-03-04T13:48:21.400Z,48.45
2023-03-04T13:50:22.697Z,47.46
2023-03-04T13:52:24.043Z,48.01
2023-03-04T13:54:27.592Z,48.54
2023-03-04T13:56:29.016Z,49.30
2023-03-04T13:58:30.357Z,48.04
2023-03-04T14:00:33.093Z,48.66
2023-03-04T14:02:40.332Z,49.33
2023-03-04T14:04:41.776Z,49.65
2023-03-04T14:06:43.067Z,49.72
2023-03-04T14:08:44.386Z,49.74
2023-03-04T14:10:45.749Z,49.75
2023-03-04T14:12:47.071Z,50.15
2023-03-04T14:14:48.364Z,49.92
2023-03-04T14:16:50.313Z,50.50
2023-03-04T14:18:51.655Z,50.58
2023-03-04T14:20:59.064Z,50.70
2023-03-04T14:23:00.420Z,50.98
2023-03-04T14:25:02.338Z,50.90
2023-03-04T14:27:03.645Z,51.11
2023-03-04T14:29:04.996Z,50.94
2023-03-04T14:31:06.387Z,50.78
2023-03-04T14:33:07.681Z,50.64
2023-03-04T14:35:09.168Z,50.84
2023-03-04T14:37:10.631Z,51.15
2023-03-04T14:39:12.042Z,51.09
2023-03-04T14:41:13.647Z,52.22
2023-03-04T14:43:14.995Z,51.73
2023-03-04T14:45:16.308Z,51.69
2023-03-04T14:47:20.428Z,51.39
2023-03-04T14:49:21.733Z,51.30
2023-03-04T14:51:23.067Z,51.12
2023-03-04T14:53:24.401Z,50.63
2023-03-04T14:55:25.764Z,50.33
2023-03-04T14:57:27.242Z,50.68
2023-03-04T14:59:28.598Z,50.42
2023-03-04T15:01:29.970Z,50.86
2023-03-04T15:03:32.129Z,49.75
2023-03-04T15:05:33.562Z,49.74
2023-03-04T15:07:46.879Z,49.84
2023-03-04T15:09:48.182Z,50.20
2023-03-04T15:11:49.520Z,49.60
2023-03-04T15:13:50.882Z,50.80
2023-03-04T15:15:52.182Z,49.75
2023-03-04T15:17:56.672Z,49.48
2023-03-04T15:19:57.989Z,48.93
2023-03-04T15:21:59.297Z,48.72
2023-03-04T15:24:00.778Z,49.50
2023-03-04T15:26:02.211Z,49.47
2023-03-04T15:28:03.542Z,49.97
2023-03-04T15:30:04.855Z,50.33
2023-03-04T15:32:07.208Z,50.05
2023-03-04T15:34:08.756Z,50.09
2023-03-04T15:36:10.101Z,50.06
2023-03-04T15:38:11.461Z,50.06
2023-03-04T15:40:12.797Z,49.91
2023-03-04T15:42:14.123Z,50.06
2023-03-04T15:44:15.459Z,50.25
2023-03-04T15:46:17.992Z,49.73
2023-03-04T15:48:19.563Z,50.07
2023-03-04T15:50:20.925Z,50.07
2023-03-04T15:52:22.369Z,49.98
2023-03-04T15:54:23.666Z,49.88
2023-03-04T15:56:24.972Z,49.97
2023-03-04T15:58:26.406Z,49.57
2023-03-04T16:00:27.789Z,49.87
2023-03-04T16:02:31.953Z,49.33
2023-03-04T16:04:33.319Z,49.64
2023-03-04T16:06:34.663Z,49.24
2023-03-04T16:08:35.963Z,49.21
2023-03-04T16:10:37.317Z,49.02
2023-03-04T16:12:38.650Z,48.83
2023-03-04T16:14:40.009Z,48.73
2023-03-04T16:16:42.150Z,48.21
2023-03-04T16:18:43.607Z,48.60
2023-03-04T16:20:45.773Z,48.08
2023-03-04T16:22:47.111Z,48.49
2023-03-04T16:24:48.440Z,48.13
2023-03-04T16:26:50.227Z,47.90
2023-03-04T16:28:51.524Z,47.92
2023-03-04T16:30:52.846Z,47.79
2023-03-04T16:32:54.206Z,48.08
2023-03-04T16:34:58.453Z,48.03
2023-03-04T16:36:59.792Z,48.02
2023-03-04T16:39:02.743Z,48.07
2023-03-04T16:41:04.491Z,48.21
2023-03-04T16:43:05.816Z,48.49
2023-03-04T16:45:07.455Z,48.67
2023-03-04T16:47:08.821Z,48.56
2023-03-04T16:49:10.172Z,48.56
2023-03-04T16:51:11.478Z,48.90
2023-03-04T16:53:12.783Z,48.96
2023-03-04T16:55:14.213Z,48.99
2023-03-04T16:57:16.273Z,49.19
2023-03-04T16:59:17.711Z,49.07
2023-03-04T17:01:19.112Z,48.97
2023-03-04T17:03:20.435Z,49.08
2023-03-04T17:05:21.762Z,49.32
2023-03-04T17:07:23.080Z,49.73
2023-03-04T17:09:24.417Z,49.53
2023-03-04T17:11:25.742Z,49.66
2023-03-04T17:13:27.080Z,49.64
2023-03-04T17:15:28.428Z,49.69
2023-03-04T17:17:29.765Z,49.63
2023-03-04T17:19:31.108Z,49.65
2023-03-04T17:21:32.404Z,49.40
2023-03-04T17:23:35.052Z,49.06
2023-03-04T17:25:36.359Z,49.63
2023-03-04T17:27:41.104Z,50.01
2023-03-04T17:29:42.408Z,49.89
2023-03-04T17:31:43.776Z,50.06
2023-03-04T17:33:45.172Z,50.30
2023-03-04T17:35:46.497Z,50.07
2023-03-04T17:37:47.876Z,50.27
2023-03-04T17:39:49.295Z,49.77
2023-03-04T17:41:53.431Z,49.56
2023-03-04T17:43:54.917Z,50.09
2023-03-04T17:45:59.268Z,49.61
2023-03-04T17:48:00.563Z,49.21
2023-03-04T17:50:01.926Z,48.31
2023-03-04T17:52:03.282Z,49.76
2023-03-04T17:54:05.613Z,47.92
2023-03-04T17:56:06.989Z,48.01
2023-03-04T17:58:08.331Z,48.66
2023-03-04T18:00:09.640Z,48.01
2023-03-04T18:02:10.943Z,48.99
2023-03-04T18:04:12.300Z,48.47
2023-03-04T18:06:13.619Z,48.31
2023-03-04T18:08:14.915Z,49.72
2023-03-04T18:10:16.264Z,48.54
2023-03-04T18:12:17.559Z,48.94
2023-03-04T18:14:18.864Z,49.41
2023-03-04T18:16:24.410Z,48.13
2023-03-04T18:18:25.752Z,48.38
2023-03-04T18:20:27.048Z,47.77
2023-03-04T18:22:29.343Z,47.31
2023-03-04T18:24:30.702Z,48.41
2023-03-04T18:26:32.061Z,48.53
2023-03-04T18:28:33.523Z,49.09
2023-03-04T18:30:34.826Z,48.25
2023-03-04T18:32:50.807Z,48.70
2023-03-04T18:34:53.012Z,48.64
2023-03-04T18:36:54.371Z,49.09
2023-03-04T18:38:59.596Z,49.77
2023-03-04T18:41:01.035Z,49.02
2023-03-04T18:43:02.905Z,49.51
2023-03-04T18:45:04.213Z,49.79
2023-03-04T18:47:06.917Z,49.18
2023-03-04T18:49:11.068Z,49.81
2023-03-04T18:51:12.375Z,49.78
2023-03-04T18:53:13.737Z,49.45
2023-03-04T18:55:15.144Z,49.27
2023-03-04T18:57:16.933Z,49.18
2023-03-04T18:59:21.247Z,49.71
2023-03-04T19:01:23.430Z,49.32
2023-03-04T19:03:24.802Z,49.27
2023-03-04T19:05:27.588Z,49.40
2023-03-04T19:07:29.045Z,49.41
2023-03-04T19:09:30.431Z,49.62
2023-03-04T19:11:34.957Z,49.61
2023-03-04T19:13:36.303Z,49.49
2023-03-04T19:15:37.609Z,49.72
2023-03-04T19:17:39.025Z,49.31
2023-03-04T19:19:40.403Z,49.85
2023-03-04T19:21:53.564Z,49.10
2023-03-04T19:23:54.959Z,49.25
2023-03-04T19:25:56.395Z,49.30
2023-03-04T19:27:57.732Z,48.90
2023-03-04T19:29:59.230Z,48.41
2023-03-04T19:32:03.756Z,49.08
2023-03-04T19:34:05.083Z,49.76
2023-03-04T19:36:06.390Z,49.98
2023-03-04T19:38:07.740Z,49.40
2023-03-04T19:40:11.967Z,49.58
2023-03-04T19:42:13.310Z,49.06
2023-03-04T19:44:17.332Z,49.95
2023-03-04T19:46:18.893Z,49.96
2023-03-04T19:48:20.245Z,49.92
2023-03-04T19:50:21.579Z,49.77
2023-03-04T19:52:23.166Z,50.20
2023-03-04T19:54:27.512Z,50.09
2023-03-04T19:56:28.927Z,50.24
2023-03-04T19:58:30.227Z,49.15
2023-03-04T20:00:31.569Z,49.68
2023-03-04T20:02:36.373Z,49.97
2023-03-04T20:04:37.762Z,49.83
2023-03-04T20:06:39.111Z,50.30
2023-03-04T20:08:40.453Z,50.14
2023-03-04T20:10:44.596Z,50.29
2023-03-04T20:12:45.960Z,50.32
2023-03-04T20:14:47.293Z,50.25
2023-03-04T20:16:51.609Z,50.06
2023-03-04T20:18:52.908Z,50.24
2023-03-04T20:20:54.239Z,49.79
2023-03-04T20:22:56.460Z,49.83
2023-03-04T20:24:57.916Z,50.06
2023-03-04T20:26:59.233Z,49.66
2023-03-04T20:29:00.615Z,50.07
2023-03-04T20:31:01.975Z,49.44
2023-03-04T20:33:03.292Z,49.38
2023-03-04T20:35:04.642Z,48.91
2023-03-04T20:37:05.943Z,48.76
2023-03-04T20:39:18.298Z,48.88
2023-03-04T20:41:28.589Z,48.61
2023-03-04T20:43:31.211Z,48.54
2023-03-04T20:45:32.741Z,48.33
2023-03-04T20:47:34.114Z,48.57
2023-03-04T20:49:35.415Z,48.46
2023-03-04T20:51:36.875Z,47.77
2023-03-04T20:53:38.175Z,47.91
2023-03-04T20:55:39.482Z,48.34
2023-03-04T20:57:43.870Z,50.82
2023-03-04T20:59:48.310Z,49.67
2023-03-04T21:01:49.703Z,49.13
2023-03-04T21:03:51.094Z,48.59
2023-03-04T21:05:52.434Z,48.11
2023-03-04T21:07:55.352Z,48.94
2023-03-04T21:09:57.030Z,49.31
2023-03-04T21:12:00.508Z,48.27
2023-03-04T21:14:02.317Z,48.71
2023-03-04T21:16:03.965Z,48.34
2023-03-04T21:18:05.336Z,49.88
2023-03-04T21:20:06.632Z,48.22
2023-03-04T21:22:07.994Z,48.70
2023-03-04T21:24:09.334Z,48.56
2023-03-04T21:26:10.702Z,48.70
2023-03-04T21:28:12.044Z,48.20
2023-03-04T21:30:13.385Z,47.93
2023-03-04T21:32:23.670Z,48.18
2023-03-04T21:34:26.851Z,49.24
2023-03-04T21:36:28.383Z,48.48
2023-03-04T21:38:32.354Z,48.47
2023-03-04T21:40:33.696Z,48.76
2023-03-04T21:42:35.088Z,48.94
2023-03-04T21:44:48.545Z,48.70
2023-03-04T21:46:50.790Z,48.21
2023-03-04T21:48:52.158Z,49.29
2023-03-04T21:50:54.598Z,48.89
2023-03-04T21:52:55.928Z,48.62
2023-03-04T21:54:57.346Z,48.92
2023-03-04T21:56:58.705Z,50.29
2023-03-04T21:59:00.120Z,49.17
2023-03-04T22:01:01.466Z,48.57
2023-03-04T22:03:02.911Z,48.41
2023-03-04T22:05:04.243Z,48.53
2023-03-04T22:07:05.560Z,48.75
2023-03-04T22:09:06.972Z,48.50
2023-03-04T22:11:08.324Z,48.60
2023-03-04T22:13:10.589Z,48.05
2023-03-04T22:15:14.744Z,48.45
2023-03-04T22:17:16.231Z,48.59
2023-03-04T22:19:17.629Z,48.12
2023-03-04T22:21:18.991Z,48.55
2023-03-04T22:23:21.123Z,49.33
2023-03-04T22:25:22.440Z,49.18
2023-03-04T22:27:26.683Z,48.69
2023-03-04T22:29:28.055Z,48.74
2023-03-04T22:31:32.285Z,48.55
2023-03-04T22:33:37.236Z,49.08
2023-03-04T22:35:38.648Z,48.74
2023-03-04T22:37:40.013Z,48.58
2023-03-04T22:39:41.307Z,48.83
2023-03-04T22:41:42.672Z,39.66
2023-03-04T22:43:43.988Z,39.76
2023-03-04T22:45:45.409Z,43.75
2023-03-04T22:47:46.732Z,42.39
2023-03-04T22:49:48.105Z,42.76
2023-03-04T22:51:49.494Z,43.63
2023-03-04T22:53:51.514Z,43.78
2023-03-04T22:55:52.895Z,44.27
2023-03-04T22:57:54.224Z,44.27
2023-03-04T22:59:55.584Z,44.71
2023-03-04T23:01:57.288Z,44.92
2023-03-04T23:03:58.741Z,45.70
2023-03-04T23:06:00.089Z,45.46
2023-03-04T23:08:01.413Z,45.98
2023-03-04T23:10:02.726Z,45.46
2023-03-04T23:12:04.071Z,46.19
2023-03-04T23:14:07.363Z,46.52
2023-03-04T23:16:08.774Z,46.30
2023-03-04T23:18:10.185Z,46.07
2023-03-04T23:20:11.537Z,46.58
2023-03-04T23:22:12.852Z,46.91
2023-03-04T23:24:14.297Z,47.02
2023-03-04T23:26:15.624Z,46.71
2023-03-04T23:28:16.924Z,47.31
2023-03-04T23:30:18.257Z,46.97
2023-03-04T23:32:19.577Z,47.19
2023-03-04T23:34:22.092Z,47.34
2023-03-04T23:36:23.428Z,47.42
2023-03-04T23:38:24.789Z,47.26
2023-03-04T23:40:26.120Z,47.95
2023-03-04T23:42:27.447Z,47.55
2023-03-04T23:44:28.782Z,47.92
2023-03-04T23:46:30.152Z,48.48
2023-03-04T23:48:31.547Z,48.79
2023-03-04T23:50:33.876Z,48.81
2023-03-04T23:52:35.170Z,48.85
2023-03-04T23:54:36.481Z,49.23
2023-03-04T23:56:37.819Z,49.47
2023-03-04T23:58:39.237Z,49.68
